Time;durP1;ratioP1;P1;durP2;ratioP2;P2;SDS_P1;SDS_P2;PMS_P1;PMS_P2;Temp;Humidity;BMP_temperature;BMP_pressure;BME280_temperature;BME280_humidity;BME280_pressure;Samples;Min_cycle;Max_cycle;Signal;HPM_P1;HPM_P2
2022/04/03 00:01:29;;;;;;;3.45;2.17;;;4.40;55.30;;;;;;5028316;28;20045;-91
2022/04/03 00:03:56;;;;;;;9.13;2.40;;;4.60;55.60;;;;;;5034766;28;20123;-91
2022/04/03 00:06:23;;;;;;;2.25;1.80;;;4.50;55.50;;;;;;5017745;28;20073;-90
2022/04/03 00:08:50;;;;;;;2.88;2.38;;;4.30;55.30;;;;;;5049746;28;20077;-91
2022/04/03 00:11:16;;;;;;;5.00;2.25;;;4.40;55.30;;;;;;5051645;28;20387;-91
2022/04/03 00:13:44;;;;;;;2.55;1.63;;;4.30;55.30;;;;;;5035739;28;20052;-91
2022/04/03 00:16:11;;;;;;;2.10;1.80;;;4.30;55.40;;;;;;5052581;28;20036;-91
2022/04/03 00:18:38;;;;;;;3.45;1.73;;;4.30;55.50;;;;;;5037651;28;20045;-91
2022/04/03 00:21:05;;;;;;;1.67;1.58;;;4.50;55.60;;;;;;5053697;28;20045;-91
2022/04/03 00:23:32;;;;;;;2.47;1.70;;;4.50;55.60;;;;;;5053637;28;20399;-92
2022/04/03 00:25:59;;;;;;;3.53;2.05;;;4.50;55.70;;;;;;5036288;28;20068;-91
2022/04/03 00:28:28;;;;;;;3.65;2.17;;;4.50;55.70;;;;;;5052015;28;20537;-91
2022/04/03 00:30:55;;;;;;;2.60;1.75;;;4.40;55.60;;;;;;5034005;28;20109;-91
2022/04/03 00:33:22;;;;;;;2.58;2.00;;;4.20;55.50;;;;;;5042492;28;20124;-91
2022/04/03 00:35:50;;;;;;;2.17;1.98;;;4.10;55.50;;;;;;5036446;28;20043;-91
2022/04/03 00:38:17;;;;;;;1.83;1.58;;;4.10;55.50;;;;;;5018304;28;20057;-91
2022/04/03 00:40:47;;;;;;;4.10;2.15;;;4.00;55.60;;;;;;5033623;28;20046;-91
2022/04/03 00:43:14;;;;;;;1.85;1.42;;;4.20;55.70;;;;;;5036957;28;20053;-90
2022/04/03 00:45:45;;;;;;;4.78;1.65;;;3.80;55.50;;;;;;5051811;28;20041;-91
2022/04/03 00:48:12;;;;;;;3.53;1.85;;;3.90;55.70;;;;;;5052874;28;20040;-90
2022/04/03 00:50:41;;;;;;;3.28;2.30;;;4.10;56.50;;;;;;5044804;28;20059;-91
2022/04/03 00:53:08;;;;;;;2.80;2.15;;;4.10;56.00;;;;;;5031390;28;20050;-90
2022/04/03 00:55:35;;;;;;;3.53;1.92;;;4.00;56.00;;;;;;5052600;28;20048;-91
2022/04/03 00:58:02;;;;;;;3.45;1.98;;;3.70;56.00;;;;;;5053967;28;20536;-90
2022/04/03 01:00:29;;;;;;;3.53;2.25;;;3.90;56.10;;;;;;5051395;28;20064;-91
2022/04/03 01:02:56;;;;;;;2.03;1.42;;;3.70;56.10;;;;;;5031861;28;20062;-91
2022/04/03 01:05:23;;;;;;;3.42;1.77;;;3.70;56.20;;;;;;5034111;28;20045;-92
2022/04/03 01:07:51;;;;;;;2.60;1.60;;;3.60;56.30;;;;;;5037317;28;20048;-90
2022/04/03 01:10:18;;;;;;;3.28;2.42;;;3.80;56.50;;;;;;5053104;28;20052;-90
2022/04/03 01:12:45;;;;;;;2.92;1.90;;;3.80;56.50;;;;;;5034057;28;20136;-90
2022/04/03 01:15:18;;;;;;;3.13;1.75;;;3.70;56.60;;;;;;5026471;28;20498;-91
2022/04/03 01:17:46;;;;;;;4.95;1.77;;;3.70;56.50;;;;;;5056941;28;20071;-91
2022/04/03 01:20:13;;;;;;;2.90;2.08;;;3.70;56.50;;;;;;5046799;28;20042;-91
2022/04/03 01:22:40;;;;;;;2.78;1.42;;;3.70;56.70;;;;;;5049350;28;20565;-90
2022/04/03 01:25:10;;;;;;;2.45;1.52;;;3.40;56.60;;;;;;5018951;28;20045;-90
2022/04/03 01:27:38;;;;;;;2.70;2.08;;;3.40;56.50;;;;;;5051912;28;20052;-90
2022/04/03 01:30:06;;;;;;;2.10;1.55;;;3.40;56.60;;;;;;5036782;28;20049;-90
2022/04/03 01:32:34;;;;;;;1.83;1.48;;;3.40;56.50;;;;;;5053024;28;20080;-90
2022/04/03 01:35:00;;;;;;;3.20;1.70;;;3.40;56.70;;;;;;5045322;28;20634;-90
2022/04/03 01:37:28;;;;;;;3.97;2.10;;;3.50;56.80;;;;;;5033720;28;20051;-90
2022/04/03 01:39:55;;;;;;;3.00;1.90;;;3.50;56.70;;;;;;5033593;28;20052;-91
2022/04/03 01:42:22;;;;;;;2.80;1.95;;;3.50;56.80;;;;;;5016173;28;20140;-91
2022/04/03 01:44:50;;;;;;;3.88;2.20;;;3.20;56.70;;;;;;5050735;28;20060;-90
2022/04/03 01:47:17;;;;;;;4.00;1.75;;;3.50;56.80;;;;;;5035909;28;20059;-91
2022/04/03 01:49:44;;;;;;;2.25;1.50;;;3.30;56.60;;;;;;5053468;28;20045;-90
2022/04/03 01:52:12;;;;;;;2.80;1.88;;;3.30;56.70;;;;;;5031709;28;20042;-89
2022/04/03 01:54:39;;;;;;;2.22;1.88;;;3.50;56.70;;;;;;5052608;28;20178;-91
2022/04/03 01:57:06;;;;;;;1.88;1.73;;;3.30;56.70;;;;;;5051464;28;20049;-91
2022/04/03 01:59:34;;;;;;;2.47;1.73;;;3.40;56.70;;;;;;5053119;28;20521;-91
2022/04/03 02:02:01;;;;;;;2.80;1.88;;;3.50;56.70;;;;;;5052001;28;20052;-90
2022/04/03 02:04:28;;;;;;;2.03;1.80;;;3.40;56.70;;;;;;5052939;28;20052;-90
2022/04/03 02:06:55;;;;;;;2.10;1.80;;;3.40;56.80;;;;;;5030556;28;20044;-91
2022/04/03 02:09:21;;;;;;;3.58;2.63;;;3.10;56.80;;;;;;5041556;28;20068;-91
2022/04/03 02:11:48;;;;;;;3.38;3.08;;;3.40;57.50;;;;;;5024757;28;20041;-91
2022/04/03 02:14:15;;;;;;;2.83;2.20;;;3.10;56.80;;;;;;5033341;28;20048;-91
2022/04/03 02:16:42;;;;;;;3.58;2.58;;;3.10;56.90;;;;;;5049893;28;20528;-91
2022/04/03 02:19:09;;;;;;;3.85;2.30;;;3.40;57.00;;;;;;5049773;28;20041;-91
2022/04/03 02:21:37;;;;;;;4.80;2.83;;;3.40;57.00;;;;;;5050298;28;20053;-91
2022/04/03 02:24:04;;;;;;;2.78;2.10;;;3.40;56.90;;;;;;5048557;28;20069;-91
2022/04/03 02:26:31;;;;;;;3.22;2.10;;;3.20;56.90;;;;;;5028339;28;20109;-91
2022/04/03 02:28:58;;;;;;;3.25;2.22;;;3.40;57.00;;;;;;5020751;28;20049;-91
2022/04/03 02:31:25;;;;;;;3.22;2.55;;;3.40;57.00;;;;;;5038079;28;20053;-90
2022/04/03 02:33:52;;;;;;;6.22;2.20;;;3.20;56.90;;;;;;5036816;28;20042;-91
2022/04/03 02:36:19;;;;;;;5.18;2.83;;;3.30;57.00;;;;;;5035785;28;20038;-90
2022/04/03 02:38:46;;;;;;;3.63;3.03;;;3.40;57.10;;;;;;5036558;28;20050;-90
2022/04/03 02:41:13;;;;;;;3.22;2.22;;;3.30;57.00;;;;;;5056115;28;20079;-90
2022/04/03 02:43:46;;;;;;;2.97;2.10;;;3.30;57.00;;;;;;5041103;28;20045;-90
2022/04/03 02:46:13;;;;;;;5.22;2.50;;;3.10;56.90;;;;;;5038825;28;20048;-90
2022/04/03 02:48:40;;;;;;;3.15;1.92;;;3.30;57.00;;;;;;5055652;28;20064;-90
2022/04/03 02:51:06;;;;;;;3.45;2.80;;;3.00;56.80;;;;;;5039752;28;20053;-91
2022/04/03 02:53:33;;;;;;;4.13;2.10;;;3.10;56.90;;;;;;5054405;28;20045;-90
2022/04/03 02:56:00;;;;;;;4.53;3.30;;;3.20;56.90;;;;;;5036455;28;20050;-92
2022/04/03 02:58:27;;;;;;;3.97;2.80;;;3.10;57.00;;;;;;5024996;28;20079;-91
2022/04/03 03:00:54;;;;;;;3.13;2.45;;;2.90;57.00;;;;;;5039251;28;20041;-91
2022/04/03 03:03:21;;;;;;;2.90;2.10;;;3.10;57.10;;;;;;5040205;28;20076;-91
2022/04/03 03:05:48;;;;;;;3.05;2.30;;;3.10;57.20;;;;;;5055527;28;20049;-91
2022/04/03 03:08:16;;;;;;;3.42;2.50;;;2.80;57.00;;;;;;5055823;28;20056;-91
2022/04/03 03:10:44;;;;;;;4.30;2.83;;;2.70;57.00;;;;;;5055786;28;20049;-91
2022/04/03 03:13:12;;;;;;;2.38;2.17;;;2.80;57.20;;;;;;5045710;28;20045;-90
2022/04/03 03:15:39;;;;;;;4.65;2.60;;;2.80;57.30;;;;;;5044027;28;20639;-91
2022/04/03 03:18:06;;;;;;;4.78;2.88;;;2.90;57.50;;;;;;5059704;28;20493;-90
2022/04/03 03:20:34;;;;;;;5.68;3.30;;;2.60;57.50;;;;;;5057230;28;20040;-90
2022/04/03 03:23:01;;;;;;;4.68;3.10;;;2.90;57.80;;;;;;5039401;28;20049;-90
2022/04/03 03:25:29;;;;;;;5.15;2.90;;;2.80;57.80;;;;;;5054844;28;20073;-90
2022/04/03 03:27:56;;;;;;;4.35;3.03;;;2.60;57.70;;;;;;5035012;28;20518;-90
2022/04/03 03:30:23;;;;;;;2.83;2.50;;;2.80;57.70;;;;;;5018975;28;20068;-90
2022/04/03 03:32:50;;;;;;;3.67;2.42;;;2.80;57.70;;;;;;5019667;28;20037;-91
2022/04/03 03:35:16;;;;;;;2.78;2.50;;;2.80;57.60;;;;;;5017336;28;20045;-90
2022/04/03 03:37:44;;;;;;;4.65;2.83;;;2.80;57.60;;;;;;5031203;28;20045;-90
2022/04/03 03:40:11;;;;;;;3.50;2.92;;;2.50;57.50;;;;;;5036083;28;20096;-90
2022/04/03 03:42:40;;;;;;;3.22;2.45;;;2.50;57.70;;;;;;5035506;28;20065;-90
2022/04/03 03:45:13;;;;;;;4.82;2.05;;;2.50;57.70;;;;;;5036823;28;20055;-91
2022/04/03 03:47:42;;;;;;;4.22;2.80;;;2.50;57.80;;;;;;5038525;28;20068;-91
2022/04/03 03:50:09;;;;;;;4.25;2.50;;;2.70;57.90;;;;;;5048199;28;20589;-90
2022/04/03 03:52:37;;;;;;;3.40;2.58;;;2.70;58.00;;;;;;5034318;28;20037;-90
2022/04/03 03:55:04;;;;;;;2.78;2.17;;;2.70;58.10;;;;;;5019904;28;20041;-90
2022/04/03 03:57:31;;;;;;;3.78;2.70;;;2.50;57.80;;;;;;5035736;28;20041;-90
2022/04/03 03:59:58;;;;;;;3.35;2.47;;;2.50;57.80;;;;;;5038443;28;20041;-90
2022/04/03 04:02:25;;;;;;;4.22;2.63;;;2.70;58.10;;;;;;5038747;28;20075;-90
2022/04/03 04:04:52;;;;;;;4.50;2.60;;;2.50;57.90;;;;;;5038410;28;20053;-90
2022/04/03 04:07:19;;;;;;;4.15;2.20;;;2.70;58.00;;;;;;5053772;28;20049;-91
2022/04/03 04:09:46;;;;;;;2.78;2.22;;;2.70;58.00;;;;;;5026942;28;20063;-91
2022/04/03 04:12:13;;;;;;;3.63;2.55;;;2.40;57.60;;;;;;5040321;28;20045;-90
2022/04/03 04:14:40;;;;;;;5.03;2.20;;;2.80;57.90;;;;;;5054371;28;20049;-90
2022/04/03 04:17:08;;;;;;;2.58;2.25;;;2.40;57.60;;;;;;5057110;28;20037;-90
2022/04/03 04:19:36;;;;;;;4.28;2.22;;;2.40;57.60;;;;;;5051330;28;20068;-90
2022/04/03 04:22:03;;;;;;;4.63;2.30;;;2.60;57.70;;;;;;5034240;28;20052;-91
2022/04/03 04:24:30;;;;;;;4.88;2.42;;;2.40;57.70;;;;;;5038196;28;20044;-90
2022/04/03 04:26:59;;;;;;;2.75;2.17;;;2.50;57.70;;;;;;5053750;28;20041;-91
2022/04/03 04:29:26;;;;;;;4.32;2.35;;;2.20;57.60;;;;;;5055243;28;20053;-89
2022/04/03 04:31:53;;;;;;;3.40;1.95;;;2.20;57.70;;;;;;5050071;28;20096;-89
2022/04/03 04:34:21;;;;;;;3.42;3.13;;;2.40;57.90;;;;;;5054627;28;20530;-90
2022/04/03 04:36:47;;;;;;;2.50;2.30;;;2.20;57.80;;;;;;5054019;28;20138;-90
2022/04/03 04:39:14;;;;;;;2.45;2.25;;;2.10;57.90;;;;;;5055120;28;20052;-91
2022/04/03 04:41:41;;;;;;;3.47;2.65;;;2.30;58.10;;;;;;5043675;28;20267;-91
2022/04/03 04:44:08;;;;;;;5.65;2.90;;;2.30;58.20;;;;;;5021350;28;20045;-91
2022/04/03 04:46:35;;;;;;;3.88;3.33;;;2.10;58.30;;;;;;5025385;28;20087;-89
2022/04/03 04:49:02;;;;;;;3.03;2.67;;;2.00;58.40;;;;;;5023722;28;20623;-90
2022/04/03 04:51:29;;;;;;;4.60;3.20;;;2.30;58.60;;;;;;5050051;28;20092;-90
2022/04/03 04:53:56;;;;;;;3.40;2.45;;;2.30;58.60;;;;;;5031135;28;20567;-90
2022/04/03 04:56:23;;;;;;;3.58;3.25;;;2.30;58.60;;;;;;5053338;28;20048;-89
2022/04/03 04:58:50;;;;;;;3.90;2.80;;;2.30;58.50;;;;;;5034750;28;20051;-90
2022/04/03 05:01:17;;;;;;;2.97;2.67;;;2.30;58.50;;;;;;5053072;28;20045;-90
2022/04/03 05:03:44;;;;;;;3.65;3.33;;;2.30;58.40;;;;;;5035145;28;20140;-90
2022/04/03 05:06:15;;;;;;;3.00;2.30;;;2.10;58.20;;;;;;5050637;28;20057;-90
2022/04/03 05:08:43;;;;;;;3.30;2.72;;;2.10;58.20;;;;;;5053581;28;20075;-90
2022/04/03 05:11:13;;;;;;;4.60;2.72;;;2.00;58.00;;;;;;5042671;28;20120;-90
2022/04/03 05:13:40;;;;;;;3.63;3.05;;;2.30;58.20;;;;;;5040408;28;20034;-90
2022/04/03 05:16:07;;;;;;;4.38;2.53;;;2.00;58.20;;;;;;5030810;28;20047;-89
2022/04/03 05:18:38;;;;;;;3.67;2.75;;;1.90;58.20;;;;;;5033637;28;20042;-91
2022/04/03 05:21:08;;;;;;;4.25;3.20;;;2.30;58.30;;;;;;5049378;28;20132;-90
2022/04/03 05:23:34;;;;;;;5.18;3.25;;;1.90;58.20;;;;;;5053609;28;20502;-90
2022/04/03 05:26:03;;;;;;;3.28;2.70;;;2.00;58.30;;;;;;5036726;28;20060;-91
2022/04/03 05:28:30;;;;;;;4.15;3.17;;;2.20;58.40;;;;;;5045234;28;20456;-90
2022/04/03 05:30:58;;;;;;;5.07;3.05;;;2.10;58.40;;;;;;5051626;28;20044;-90
2022/04/03 05:33:25;;;;;;;3.83;3.03;;;1.90;58.40;;;;;;5033479;28;20041;-91
2022/04/03 05:35:52;;;;;;;4.68;3.58;;;2.00;58.60;;;;;;5020475;28;20051;-90
2022/04/03 05:38:19;;;;;;;3.40;2.75;;;1.90;58.60;;;;;;5053775;28;20460;-90
2022/04/03 05:40:47;;;;;;;5.70;3.38;;;2.10;58.70;;;;;;5053905;28;20108;-91
2022/04/03 05:43:13;;;;;;;4.10;3.17;;;1.90;58.70;;;;;;5033606;28;20687;-90
2022/04/03 05:45:40;;;;;;;4.38;3.53;;;2.10;58.80;;;;;;5032471;28;20069;-90
2022/04/03 05:48:08;;;;;;;4.35;3.50;;;2.20;58.90;;;;;;5039841;28;20136;-91
2022/04/03 05:50:37;;;;;;;4.80;3.90;;;2.10;59.00;;;;;;5033975;28;20041;-90
2022/04/03 05:53:06;;;;;;;4.18;3.78;;;2.10;59.00;;;;;;5034246;28;20041;-90
2022/04/03 05:55:33;;;;;;;4.65;3.20;;;2.20;59.00;;;;;;5035379;28;20119;-90
2022/04/03 05:58:00;;;;;;;6.22;3.25;;;2.00;59.20;;;;;;5052813;28;20139;-89
2022/04/03 06:00:27;;;;;;;7.00;3.20;;;2.20;59.20;;;;;;5037195;28;20534;-92
2022/04/03 06:02:55;;;;;;;5.70;3.40;;;2.20;59.20;;;;;;5049909;28;20148;-90
2022/04/03 06:05:30;;;;;;;4.78;3.65;;;2.20;59.20;;;;;;5032371;28;20140;-90
2022/04/03 06:08:01;;;;;;;3.78;3.22;;;2.00;59.10;;;;;;5032659;28;20053;-91
2022/04/03 06:10:30;;;;;;;5.80;4.10;;;2.00;59.10;;;;;;5034592;28;20048;-91
2022/04/03 06:12:59;;;;;;;6.78;3.67;;;2.20;59.40;;;;;;5035658;28;20063;-91
2022/04/03 06:15:34;;;;;;;8.10;4.88;;;2.20;59.40;;;;;;5049591;28;20045;-91
2022/04/03 06:18:03;;;;;;;5.13;3.70;;;2.30;59.70;;;;;;5032090;28;20052;-91
2022/04/03 06:20:31;;;;;;;8.80;4.10;;;2.40;59.60;;;;;;5049364;28;20048;-94
2022/04/03 06:22:59;;;;;;;5.05;3.42;;;2.30;59.70;;;;;;5049979;28;20136;-90
2022/04/03 06:25:26;;;;;;;5.25;4.03;;;2.10;59.80;;;;;;5043672;28;20495;-91
2022/04/03 06:27:54;;;;;;;6.05;3.70;;;2.10;60.00;;;;;;5032437;28;20148;-91
2022/04/03 06:30:22;;;;;;;5.85;4.00;;;2.20;60.20;;;;;;5033071;28;20215;-91
2022/04/03 06:32:49;;;;;;;6.97;4.22;;;2.30;60.10;;;;;;5033118;28;20658;-91
2022/04/03 06:35:16;;;;;;;5.13;4.43;;;2.60;60.50;;;;;;5033885;28;20041;-90
2022/04/03 06:37:43;;;;;;;5.90;3.55;;;2.40;60.30;;;;;;5033855;28;20045;-91
2022/04/03 06:40:10;;;;;;;7.50;4.65;;;2.70;60.60;;;;;;5035271;28;20044;-90
2022/04/03 06:42:38;;;;;;;4.75;4.20;;;2.60;60.50;;;;;;5052063;28;20140;-90
2022/04/03 06:45:05;;;;;;;5.82;4.03;;;2.90;60.60;;;;;;5034587;28;20053;-91
2022/04/03 06:47:33;;;;;;;6.00;4.40;;;2.70;60.30;;;;;;5036886;28;20056;-91
2022/04/03 06:50:00;;;;;;;7.32;4.32;;;3.00;60.40;;;;;;5016198;28;20053;-90
2022/04/03 06:52:27;;;;;;;7.68;4.88;;;3.10;60.60;;;;;;5029807;28;20053;-90
2022/04/03 06:54:54;;;;;;;6.82;4.70;;;2.90;60.40;;;;;;5031488;28;20049;-90
2022/04/03 06:57:21;;;;;;;6.28;4.45;;;3.00;60.40;;;;;;5040318;28;20049;-90
2022/04/03 06:59:48;;;;;;;6.25;3.65;;;3.20;60.30;;;;;;5052175;28;20060;-90
2022/04/03 07:02:15;;;;;;;5.35;3.80;;;3.30;60.80;;;;;;5050184;28;20144;-90
2022/04/03 07:04:42;;;;;;;4.22;3.75;;;3.50;60.10;;;;;;5047634;28;20045;-90
2022/04/03 07:07:22;;;;;;;3.80;3.38;;;3.20;59.70;;;;;;5016471;28;20147;-90
2022/04/03 07:09:51;;;;;;;4.72;3.70;;;3.60;59.70;;;;;;5007263;28;20053;-93
2022/04/03 07:12:22;;;;;;;5.72;3.83;;;3.70;59.60;;;;;;5044867;28;20063;-91
2022/04/03 07:14:50;;;;;;;6.20;3.85;;;3.70;59.70;;;;;;5023044;28;20354;-92
2022/04/03 07:17:17;;;;;;;5.97;3.53;;;3.50;59.30;;;;;;5030219;28;20073;-91
2022/04/03 07:19:44;;;;;;;4.60;3.83;;;3.60;59.10;;;;;;5018097;28;20049;-91
2022/04/03 07:22:11;;;;;;;4.88;3.47;;;3.90;59.10;;;;;;5054798;28;20045;-91
2022/04/03 07:24:38;;;;;;;6.72;3.53;;;3.80;58.90;;;;;;5037468;28;20049;-91
2022/04/03 07:27:05;;;;;;;3.58;3.22;;;3.80;58.80;;;;;;5030717;28;20068;-92
2022/04/03 07:29:33;;;;;;;4.63;3.67;;;3.90;58.70;;;;;;5035894;28;20045;-91
2022/04/03 07:32:01;;;;;;;8.18;4.05;;;3.90;58.30;;;;;;5038899;28;20494;-92
2022/04/03 07:34:28;;;;;;;6.07;3.95;;;4.00;58.20;;;;;;5042259;28;20124;-92
2022/04/03 07:36:56;;;;;;;5.47;3.30;;;4.30;58.30;;;;;;5031246;28;20057;-92
2022/04/03 07:40:21;;;;;;;3.88;3.15;;;4.30;58.10;;;;;;5018458;28;20117;-92
2022/04/03 07:43:08;;;;;;;4.22;2.80;;;3.90;57.90;;;;;;5036194;28;20045;-92
2022/04/03 07:45:34;;;;;;;6.85;2.58;;;4.20;57.90;;;;;;5037057;28;20053;-93
2022/04/03 07:48:01;;;;;;;3.08;2.78;;;4.30;57.80;;;;;;5053163;28;20041;-91
2022/04/03 07:50:29;;;;;;;6.13;2.80;;;4.50;57.90;;;;;;5043302;28;20057;-91
2022/04/03 07:52:56;;;;;;;3.90;2.95;;;4.40;57.50;;;;;;5049741;28;20049;-92
2022/04/03 07:55:23;;;;;;;6.38;2.92;;;4.60;57.60;;;;;;5044968;28;20597;-91
2022/04/03 07:57:50;;;;;;;2.97;2.55;;;4.50;57.50;;;;;;5038138;28;20517;-91
2022/04/03 08:00:17;;;;;;;3.15;2.58;;;4.60;57.40;;;;;;5039931;28;20073;-91
2022/04/03 08:02:44;;;;;;;4.45;2.88;;;4.60;57.20;;;;;;5034844;28;20052;-91
2022/04/03 08:05:11;;;;;;;4.43;2.67;;;4.90;57.50;;;;;;5038976;28;20049;-94
2022/04/03 08:07:39;;;;;;;2.95;2.60;;;4.90;57.40;;;;;;5049091;28;20068;-90
2022/04/03 08:10:08;;;;;;;3.67;2.65;;;4.80;56.90;;;;;;5038335;28;20049;-91
2022/04/03 08:12:36;;;;;;;3.33;2.17;;;5.10;56.90;;;;;;5036109;28;20049;-90
2022/04/03 08:15:07;;;;;;;3.92;2.70;;;5.00;56.50;;;;;;5026935;28;20487;-91
2022/04/03 08:17:34;;;;;;;3.70;2.15;;;5.10;56.50;;;;;;5047366;28;20225;-92
2022/04/03 08:20:02;;;;;;;2.83;2.25;;;5.40;56.60;;;;;;5033940;28;20137;-91
2022/04/03 08:22:29;;;;;;;2.08;1.70;;;5.20;56.10;;;;;;5028161;28;20631;-91
2022/04/03 08:24:56;;;;;;;3.08;2.35;;;5.50;56.00;;;;;;5024655;28;20048;-91
2022/04/03 08:27:49;;;;;;;3.60;1.58;;;5.60;55.80;;;;;;5040188;28;20049;-91
2022/04/03 08:30:31;;;;;;;2.67;1.52;;;5.50;54.20;;;;;;5022428;28;20507;-90
2022/04/03 08:32:58;;;;;;;2.63;1.80;;;5.60;54.10;;;;;;5036850;28;20049;-91
2022/04/03 08:35:27;;;;;;;1.92;1.63;;;6.00;54.60;;;;;;5023516;28;20049;-91
2022/04/03 08:37:55;;;;;;;7.00;1.80;;;6.00;54.30;;;;;;5036887;28;20071;-91
2022/04/03 08:40:24;;;;;;;6.57;2.20;;;6.00;54.10;;;;;;5028548;28;20049;-92
2022/04/03 08:42:54;;;;;;;8.48;2.28;;;5.90;53.60;;;;;;5036986;28;20049;-90
2022/04/03 08:45:22;;;;;;;2.10;1.52;;;6.10;53.50;;;;;;5025362;28;20049;-91
2022/04/03 08:47:55;;;;;;;2.72;1.90;;;6.30;53.30;;;;;;5019033;28;20045;-91
2022/04/03 08:50:27;;;;;;;4.32;1.80;;;6.40;52.90;;;;;;5051464;28;20051;-91
2022/04/03 08:52:59;;;;;;;3.17;2.00;;;6.40;52.40;;;;;;5035060;28;20053;-91
2022/04/03 08:55:28;;;;;;;3.30;2.22;;;6.30;52.80;;;;;;5049154;28;20037;-91
2022/04/03 08:57:58;;;;;;;2.53;1.42;;;6.30;52.90;;;;;;5037847;28;20040;-91
2022/04/03 09:00:30;;;;;;;4.05;1.52;;;6.30;52.20;;;;;;5036719;28;20045;-92
2022/04/03 09:03:06;;;;;;;3.33;1.70;;;6.60;52.30;;;;;;5034657;28;20069;-92
2022/04/03 09:05:38;;;;;;;4.95;1.88;;;6.50;52.70;;;;;;5035018;28;20050;-92
2022/04/03 09:08:09;;;;;;;2.70;1.80;;;6.60;52.20;;;;;;5035455;28;20045;-92
2022/04/03 09:10:38;;;;;;;3.72;2.40;;;6.90;52.20;;;;;;5053991;28;20045;-91
2022/04/03 09:13:23;;;;;;;2.72;1.67;;;6.80;52.10;;;;;;5029685;28;20091;-91
2022/04/03 09:15:50;;;;;;;3.85;1.70;;;6.70;51.40;;;;;;5045120;28;20037;-92
2022/04/03 09:18:53;;;;;;;2.60;2.22;;;7.00;51.80;;;;;;5017561;28;20045;-92
2022/04/03 09:21:40;;;;;;;2.13;1.75;;;6.90;50.40;;;;;;5023868;28;20052;-92
2022/04/03 09:24:28;;;;;;;2.85;1.67;;;6.90;51.30;;;;;;5037886;28;20070;-92
2022/04/03 09:27:42;;;;;;;1.70;1.60;;;7.00;51.30;;;;;;5033326;28;20060;-93
2022/04/03 09:34:02;;;;;;;2.22;1.65;;;7.40;51.20;;;;;;5028597;28;20038;-93
2022/04/03 09:36:59;;;;;;;2.75;1.50;;;7.80;50.10;;;;;;5036727;28;20061;-92
2022/04/03 09:39:35;;;;;;;2.70;1.85;;;7.70;50.10;;;;;;5031668;28;20049;-93
2022/04/03 09:42:37;;;;;;;2.70;1.50;;;7.80;49.80;;;;;;4958325;28;20050;-93
2022/04/03 09:45:54;;;;;;;2.28;1.55;;;8.00;49.90;;;;;;4974904;28;20116;-92
2022/04/03 09:48:32;;;;;;;1.85;1.30;;;8.30;49.40;;;;;;4987895;28;20054;-92
2022/04/03 09:51:12;;;;;;;2.65;1.40;;;8.20;49.50;;;;;;4964605;28;20072;-92
2022/04/03 09:54:18;;;;;;;2.35;1.63;;;8.30;49.10;;;;;;4990661;28;20049;-93
2022/04/03 09:56:52;;;;;;;2.22;1.10;;;8.40;48.20;;;;;;4968829;28;20116;-93
2022/04/03 10:00:26;;;;;;;2.58;1.60;;;8.60;49.10;;;;;;5039510;28;20041;-93
2022/04/03 10:03:29;;;;;;;2.55;1.95;;;8.50;48.90;;;;;;5053217;28;20053;-93
2022/04/03 10:05:58;;;;;;;1.80;1.20;;;8.70;47.60;;;;;;5042958;28;20049;-94
2022/04/03 10:08:51;;;;;;;1.67;1.58;;;8.70;48.40;;;;;;5054541;28;20566;-92
2022/04/03 10:11:40;;;;;;;2.05;1.70;;;8.70;47.50;;;;;;5047168;28;20045;-93
2022/04/03 10:14:22;;;;;;;2.42;1.88;;;8.70;47.30;;;;;;5040944;28;20145;-93
2022/04/03 10:17:08;;;;;;;3.85;1.30;;;8.90;48.00;;;;;;5037652;28;20041;-92
2022/04/03 10:19:57;;;;;;;2.53;1.27;;;8.70;48.30;;;;;;5032197;28;20052;-93
2022/04/03 10:22:44;;;;;;;1.45;1.17;;;8.90;48.60;;;;;;5031846;28;20037;-92
2022/04/03 10:25:20;;;;;;;3.15;1.40;;;8.60;48.80;;;;;;5032891;28;20041;-94
2022/04/03 10:27:54;;;;;;;2.17;1.40;;;8.80;49.20;;;;;;5044213;28;20056;-93
2022/04/03 10:30:43;;;;;;;1.63;1.05;;;8.50;49.20;;;;;;5039033;28;20049;-93
2022/04/03 10:33:38;;;;;;;2.97;1.73;;;8.60;49.10;;;;;;5034423;28;20691;-92
2022/04/03 10:36:38;;;;;;;3.67;1.40;;;8.80;48.40;;;;;;5049421;28;20033;-92
2022/04/03 10:39:20;;;;;;;1.20;1.10;;;8.60;49.20;;;;;;5044734;28;20041;-92
2022/04/03 10:46:20;;;;;;;2.03;0.95;;;8.80;49.30;;;;;;5045022;28;20303;-92
2022/04/03 10:49:48;;;;;;;;;;;;;;;;;;;;;
2022/04/03 10:56:09;;;;;;;1.55;0.85;;;9.10;48.70;;;;;;5058783;28;20572;-93
2022/04/03 10:58:54;;;;;;;0.85;0.82;;;9.30;48.60;;;;;;5023852;28;20045;-93
2022/04/03 11:01:45;;;;;;;2.33;0.80;;;9.40;48.10;;;;;;5051190;28;20113;-92
2022/04/03 11:04:36;;;;;;;1.77;0.80;;;9.60;48.50;;;;;;5039028;28;20570;-91
2022/04/03 11:07:50;;;;;;;1.23;0.80;;;9.70;48.80;;;;;;5062386;28;20155;-93
2022/04/03 11:10:57;;;;;;;1.40;0.70;;;9.80;47.30;;;;;;5039924;28;20053;-92
2022/04/03 11:13:40;;;;;;;;;;;;;;;;;;;;;
2022/04/03 11:16:58;;;;;;;1.85;1.05;;;10.30;47.90;;;;;;5062387;28;20653;-94
2022/04/03 11:19:58;;;;;;;1.88;0.80;;;10.20;46.80;;;;;;5046860;28;20051;-92
2022/04/03 11:23:04;;;;;;;1.45;0.90;;;10.20;47.10;;;;;;5022895;28;20504;-92
2022/04/03 11:25:50;;;;;;;1.67;1.02;;;10.50;46.00;;;;;;5034166;28;20461;-92
2022/04/03 11:28:57;;;;;;;0.90;0.90;;;10.50;47.10;;;;;;5049262;28;20226;-92
2022/04/03 11:32:04;;;;;;;1.67;0.85;;;10.70;45.40;;;;;;5039731;28;20814;-92
2022/04/03 11:34:38;;;;;;;1.70;0.73;;;10.50;44.80;;;;;;5010627;28;20140;-93
2022/04/03 11:40:51;;;;;;;4.05;2.58;;;10.50;45.50;;;;;;5051317;28;20037;-94
2022/04/03 11:43:32;;;;;;;2.47;1.05;;;10.80;46.40;;;;;;5031869;28;20041;-93
2022/04/03 11:46:15;;;;;;;1.85;0.85;;;10.60;45.70;;;;;;5015734;28;20072;-92
2022/04/03 11:48:51;;;;;;;0.95;0.85;;;10.70;46.30;;;;;;5020025;28;21302;-92
2022/04/03 11:52:01;;;;;;;2.08;1.13;;;10.80;45.80;;;;;;5052384;28;20043;-93
2022/04/03 11:55:16;;;;;;;3.10;0.77;;;10.90;45.00;;;;;;5014361;28;20519;-93
2022/04/03 12:01:28;;;;;;;0.75;0.70;;;11.30;45.40;;;;;;5040049;28;20057;-93
2022/04/03 12:04:23;;;;;;;2.10;1.10;;;11.20;45.30;;;;;;5050457;28;20052;-93
2022/04/03 12:07:17;;;;;;;2.10;0.90;;;11.50;44.30;;;;;;5055817;28;20068;-92
2022/04/03 12:13:29;;;;;;;0.70;0.70;;;11.50;45.00;;;;;;5010836;28;20517;-93
2022/04/03 12:16:22;;;;;;;1.20;1.10;;;11.50;44.90;;;;;;5040935;28;20049;-92
2022/04/03 12:19:17;;;;;;;1.40;0.73;;;11.50;43.50;;;;;;5036217;28;20128;-92
2022/04/03 12:22:18;;;;;;;1.25;0.85;;;11.60;42.70;;;;;;5054478;28;20048;-93
2022/04/03 12:25:35;;;;;;;0.80;0.70;;;11.40;43.10;;;;;;5046400;28;20045;-92
2022/04/03 12:28:11;;;;;;;1.33;0.77;;;11.50;43.20;;;;;;5049454;28;20421;-54
2022/04/03 12:30:43;;;;;;;1.58;0.90;;;11.50;43.60;;;;;;5050693;28;20497;-54
2022/04/03 12:33:09;;;;;;;1.83;0.82;;;11.60;43.40;;;;;;5041008;28;20041;-54
2022/04/03 12:35:50;;;;;;;1.92;1.40;;;11.60;43.50;;;;;;5025759;28;20051;-49
2022/04/03 12:38:32;;;;;;;0.73;0.60;;;11.70;42.90;;;;;;5040041;28;20254;-54
2022/04/03 12:41:08;;;;;;;0.95;0.85;;;11.80;43.70;;;;;;5030243;28;20036;-54
2022/04/03 12:43:44;;;;;;;2.85;0.90;;;11.90;43.80;;;;;;5046778;28;20112;-53
2022/04/03 12:46:38;;;;;;;1.42;0.80;;;12.20;43.90;;;;;;5046900;28;20047;-55
2022/04/03 12:49:19;;;;;;;1.10;1.00;;;12.30;42.60;;;;;;5044467;28;20057;-51
2022/04/03 12:51:49;;;;;;;0.95;0.90;;;12.50;42.50;;;;;;5039415;28;20516;-51
2022/04/03 12:54:38;;;;;;;1.42;1.33;;;12.60;42.40;;;;;;5027951;28;20052;-53
2022/04/03 13:00:27;;;;;;;2.30;0.80;;;12.70;41.40;;;;;;5038647;28;20118;-54
2022/04/03 13:02:57;;;;;;;0.80;0.77;;;12.60;40.70;;;;;;5044631;28;20065;-54
2022/04/03 13:05:32;;;;;;;1.42;0.82;;;12.60;42.10;;;;;;5041108;28;20041;-53
2022/04/03 13:08:15;;;;;;;1.17;1.10;;;12.40;41.30;;;;;;5003896;28;20625;-54
2022/04/03 13:10:56;;;;;;;1.42;1.30;;;12.30;41.30;;;;;;5035729;28;20057;-54
2022/04/03 13:13:35;;;;;;;2.72;1.10;;;12.20;41.30;;;;;;5026364;28;20045;-54
2022/04/03 13:16:02;;;;;;;2.65;1.40;;;12.10;42.40;;;;;;5034337;28;20033;-54
2022/04/03 13:18:37;;;;;;;2.90;1.30;;;12.00;42.30;;;;;;5005652;28;20115;-50
2022/04/03 13:21:06;;;;;;;2.85;1.50;;;12.00;43.10;;;;;;5027083;28;20119;-53
2022/04/03 13:23:40;;;;;;;1.30;1.08;;;12.00;42.90;;;;;;5019378;28;20056;-53
2022/04/03 13:26:08;;;;;;;1.33;1.02;;;12.00;43.30;;;;;;5026385;28;20095;-51
2022/04/03 13:28:41;;;;;;;1.98;1.20;;;12.00;43.60;;;;;;5019285;28;20124;-51
2022/04/03 13:31:21;;;;;;;1.13;1.02;;;12.00;43.40;;;;;;5036412;28;20420;-53
2022/04/03 13:33:53;;;;;;;2.40;1.15;;;12.00;43.00;;;;;;4992917;28;20477;-54
2022/04/03 13:36:20;;;;;;;1.58;1.13;;;12.00;43.20;;;;;;5033722;28;20033;-52
2022/04/03 13:38:50;;;;;;;0.93;0.90;;;12.00;42.90;;;;;;5023116;28;20131;-53
2022/04/03 13:41:25;;;;;;;4.05;1.10;;;12.00;43.10;;;;;;5037412;28;20492;-54
2022/04/03 13:44:07;;;;;;;1.95;0.98;;;12.00;42.90;;;;;;5022244;28;20052;-54
2022/04/03 13:46:39;;;;;;;3.65;1.00;;;12.10;43.10;;;;;;5038479;28;20420;-53
2022/04/03 13:49:14;;;;;;;2.17;0.95;;;12.10;43.30;;;;;;5021399;28;20037;-50
2022/04/03 13:51:47;;;;;;;1.45;0.90;;;12.20;43.80;;;;;;5031085;28;20654;-50
2022/04/03 13:54:17;;;;;;;1.90;1.00;;;12.40;44.10;;;;;;5021274;28;20107;-52
2022/04/03 13:56:51;;;;;;;1.83;0.88;;;12.50;43.20;;;;;;5041501;28;20036;-53